Terminal Aerodrome Forecast
Issued by NWS Green Bay, WI

Home | Current Version | Previous Version | Text Only | Print | Product List | Glossary Off
Versions: 1 2 3 4 5 6 7 8 9 10 11 12 13 14 15 16 17 18

000
FTUS43 KGRB 201128
TAFGRB
TAF
KGRB 201128Z 2012/2112 VRB03KT 6SM BR SCT200
      TEMPO 2012/2013 2SM BR
     FM201400 21007KT P6SM SCT200
     FM201900 20010G15KT P6SM FEW080 SCT200
     FM210000 18009KT P6SM SCT080 BKN150
     FM210600 21009KT 6SM BR VCTS BKN100CB=

USA.gov is the U.S. government's official web portal to all federal, state and local government web resources and services.